createdAt,value
2019-02-10T00:00:32.532Z,14.83
2019-02-10T00:04:40.081Z,14.13
2019-02-10T00:08:47.643Z,14.98
2019-02-10T00:13:13.584Z,13.20
2019-02-10T00:17:21.145Z,12.65
2019-02-10T00:21:28.705Z,13.15
2019-02-10T00:25:36.248Z,11.18
2019-02-10T00:29:43.814Z,13.30
2019-02-10T00:33:51.371Z,12.25
2019-02-10T00:37:58.934Z,12.07
2019-02-10T00:42:06.492Z,13.75
2019-02-10T00:46:14.044Z,12.75
2019-02-10T00:50:21.601Z,14.58
2019-02-10T00:54:29.163Z,13.28
2019-02-10T00:58:36.716Z,11.43
2019-02-10T01:02:44.276Z,13.58
2019-02-10T01:06:51.819Z,14.13
2019-02-10T01:10:59.387Z,12.82
2019-02-10T01:15:07.046Z,12.13
2019-02-10T01:19:14.607Z,12.20
2019-02-10T01:23:22.160Z,11.55
2019-02-10T01:27:29.721Z,12.55
2019-02-10T01:31:37.272Z,11.73
2019-02-10T01:35:44.831Z,12.40
2019-02-10T01:39:54.198Z,12.40
2019-02-10T01:44:01.593Z,12.53
2019-02-10T01:48:09.152Z,12.55
2019-02-10T01:52:16.704Z,12.68
2019-02-10T01:56:24.255Z,11.97
2019-02-10T02:00:31.820Z,9.78
2019-02-10T02:04:39.359Z,10.90
2019-02-10T02:08:46.915Z,11.03
2019-02-10T02:12:54.468Z,11.53
2019-02-10T02:17:02.024Z,12.35
2019-02-10T02:21:09.612Z,11.25
2019-02-10T02:25:17.181Z,10.68
2019-02-10T02:29:24.723Z,10.58
2019-02-10T02:33:32.289Z,10.72
2019-02-10T02:37:39.835Z,9.98
2019-02-10T02:41:47.385Z,10.08
2019-02-10T02:45:54.964Z,11.93
2019-02-10T02:50:02.522Z,11.88
2019-02-10T02:54:10.056Z,10.43
2019-02-10T02:58:17.627Z,10.65
2019-02-10T03:02:25.225Z,11.00
2019-02-10T03:06:34.351Z,11.68
2019-02-10T03:10:41.910Z,12.53
2019-02-10T03:14:49.458Z,10.75
2019-02-10T03:18:57.012Z,11.40
2019-02-10T03:23:04.566Z,10.53
2019-02-10T03:27:12.117Z,10.18
2019-02-10T03:31:19.694Z,10.85
2019-02-10T03:35:27.240Z,10.58
2019-02-10T03:39:34.798Z,10.05
2019-02-10T03:43:42.357Z,9.43
2019-02-10T03:47:49.920Z,11.12
2019-02-10T03:51:57.476Z,9.18
2019-02-10T03:56:05.022Z,11.55
2019-02-10T04:00:12.688Z,10.63
2019-02-10T04:04:20.260Z,10.03
2019-02-10T04:08:27.816Z,10.28
2019-02-10T04:12:35.372Z,11.78
2019-02-10T04:16:42.933Z,10.90
2019-02-10T04:20:50.480Z,11.40
2019-02-10T04:24:58.037Z,9.60
2019-02-10T04:29:05.594Z,9.88
2019-02-10T04:33:13.149Z,9.40
2019-02-10T04:37:20.707Z,9.15
2019-02-10T04:41:28.257Z,10.53
2019-02-10T04:45:35.821Z,9.50
2019-02-10T04:49:43.376Z,9.33
2019-02-10T04:53:50.929Z,9.33
2019-02-10T04:57:58.484Z,9.23
2019-02-10T05:02:06.036Z,9.15
2019-02-10T05:06:13.602Z,9.05
2019-02-10T05:10:21.816Z,11.88
2019-02-10T05:14:29.431Z,9.15
2019-02-10T05:18:36.974Z,8.70
2019-02-10T05:22:44.526Z,8.10
2019-02-10T05:26:52.077Z,8.23
2019-02-10T05:30:59.633Z,8.83
2019-02-10T05:35:07.191Z,15.80
2019-02-10T05:39:14.748Z,10.23
2019-02-10T05:43:22.294Z,11.65
2019-02-10T05:47:29.851Z,9.95
2019-02-10T05:51:37.412Z,10.60
2019-02-10T05:55:44.954Z,9.78
2019-02-10T05:59:52.530Z,10.15
2019-02-10T06:04:00.136Z,11.97
2019-02-10T06:08:13.461Z,10.93
2019-02-10T06:12:16.906Z,10.63
2019-02-10T06:16:24.465Z,10.85
2019-02-10T06:20:32.033Z,11.12
2019-02-10T06:24:39.665Z,11.83
2019-02-10T06:28:47.249Z,11.28
2019-02-10T06:32:54.822Z,11.05
2019-02-10T06:37:02.370Z,11.53
2019-02-10T06:41:09.945Z,10.88
2019-02-10T06:45:17.581Z,11.90
2019-02-10T06:49:25.162Z,11.35
2019-02-10T06:53:32.727Z,13.10
2019-02-10T06:57:40.302Z,12.23
2019-02-10T07:01:52.256Z,13.10
2019-02-10T07:05:59.825Z,11.40
2019-02-10T07:10:07.588Z,12.25
2019-02-10T07:14:19.280Z,12.15
2019-02-10T07:18:45.235Z,12.47
2019-02-10T07:22:54.512Z,13.00
2019-02-10T07:27:19.129Z,12.30
2019-02-10T07:31:26.694Z,13.98
2019-02-10T07:35:48.071Z,10.82
2019-02-10T07:39:57.184Z,10.95
2019-02-10T07:44:08.997Z,11.20
2019-02-10T07:48:24.180Z,11.08
2019-02-10T07:52:42.096Z,12.60
2019-02-10T07:56:54.232Z,10.78
2019-02-10T08:01:03.343Z,13.30
2019-02-10T08:05:18.640Z,11.25
2019-02-10T08:09:27.765Z,13.30
2019-02-10T08:13:45.901Z,12.03
2019-02-10T08:17:55.040Z,10.63
2019-02-10T08:22:10.002Z,11.40
2019-02-10T08:26:19.138Z,11.10
2019-02-10T08:30:40.508Z,10.90
2019-02-10T08:34:58.508Z,11.18
2019-02-10T08:39:26.114Z,10.78
2019-02-10T08:43:44.393Z,10.15
2019-02-10T08:48:02.499Z,14.28
2019-02-10T08:52:20.709Z,12.40
2019-02-10T08:56:28.270Z,13.78
2019-02-10T09:00:35.846Z,14.13
2019-02-10T09:04:43.405Z,13.48
2019-02-10T09:08:51.007Z,11.12
2019-02-10T09:12:58.567Z,15.48
2019-02-10T09:17:06.157Z,63.10
2019-02-10T09:21:13.751Z,128.62
2019-02-10T09:25:21.315Z,90.47
2019-02-10T09:29:28.898Z,115.82
2019-02-10T09:33:36.816Z,115.57
2019-02-10T09:37:44.441Z,124.80
2019-02-10T09:41:52.024Z,106.32
2019-02-10T09:45:59.572Z,101.60
2019-02-10T09:50:08.948Z,100.38
2019-02-10T09:54:16.521Z,77.87
2019-02-10T09:58:24.092Z,71.67
2019-02-10T10:02:31.661Z,66.85
2019-02-10T10:06:39.216Z,63.25
2019-02-10T10:10:46.780Z,61.60
2019-02-10T10:14:54.348Z,57.58
2019-02-10T10:19:01.912Z,50.15
2019-02-10T10:23:09.471Z,47.17
2019-02-10T10:27:17.047Z,47.30
2019-02-10T10:31:24.608Z,42.17
2019-02-10T10:35:32.175Z,40.75
2019-02-10T10:39:39.745Z,41.80
2019-02-10T10:43:47.308Z,37.03
2019-02-10T10:47:54.869Z,36.23
2019-02-10T10:52:02.476Z,31.93
2019-02-10T10:56:10.032Z,31.95
2019-02-10T11:00:17.606Z,30.45
2019-02-10T11:04:25.168Z,27.50
2019-02-10T11:08:32.737Z,25.70
2019-02-10T11:12:40.366Z,25.45
2019-02-10T11:16:47.923Z,22.45
2019-02-10T11:20:55.490Z,21.17
2019-02-10T11:25:03.062Z,24.10
2019-02-10T11:29:10.619Z,21.80
2019-02-10T11:33:18.188Z,20.62
2019-02-10T11:37:26.849Z,19.10
2019-02-10T11:41:34.712Z,17.57
2019-02-10T11:45:42.276Z,16.95
2019-02-10T11:49:49.845Z,16.67
2019-02-10T11:54:00.877Z,15.55
2019-02-10T11:58:08.429Z,15.15
2019-02-10T12:02:16.001Z,14.95
2019-02-10T12:06:23.563Z,14.90
2019-02-10T12:10:31.158Z,15.25
2019-02-10T12:14:38.755Z,15.48
2019-02-10T12:18:46.308Z,16.45
2019-02-10T12:22:53.874Z,15.90
2019-02-10T12:27:01.428Z,14.13
2019-02-10T12:31:08.992Z,16.60
2019-02-10T12:35:16.555Z,14.60
2019-02-10T12:39:24.116Z,14.98
2019-02-10T12:43:31.672Z,14.70
2019-02-10T12:47:39.228Z,13.62
2019-02-10T12:51:46.791Z,13.28
2019-02-10T12:55:54.356Z,11.68
2019-02-10T13:00:01.909Z,12.45
2019-02-10T13:04:09.489Z,12.78
2019-02-10T13:08:17.035Z,11.55
2019-02-10T13:12:24.608Z,10.98
2019-02-10T13:16:32.168Z,12.88
2019-02-10T13:20:39.731Z,12.53
2019-02-10T13:24:47.329Z,15.18
2019-02-10T13:28:54.901Z,16.20
2019-02-10T13:33:02.459Z,16.02
2019-02-10T13:37:10.016Z,15.68
2019-02-10T13:41:17.578Z,16.73
2019-02-10T13:45:25.144Z,18.62
2019-02-10T13:49:32.741Z,22.50
2019-02-10T13:53:40.279Z,19.32
2019-02-10T13:57:47.840Z,21.77
2019-02-10T14:01:55.413Z,20.95
2019-02-10T14:06:02.976Z,18.80
2019-02-10T14:10:11.742Z,22.77
2019-02-10T14:14:19.353Z,24.67
2019-02-10T14:18:26.946Z,26.02
2019-02-10T14:22:34.560Z,30.43
2019-02-10T14:26:42.069Z,25.88
2019-02-10T14:30:49.627Z,26.60
2019-02-10T14:34:57.260Z,28.80
2019-02-10T14:39:05.221Z,26.90
2019-02-10T14:43:12.785Z,41.40
2019-02-10T14:47:20.346Z,46.25
2019-02-10T14:51:27.905Z,45.05
2019-02-10T14:55:35.459Z,45.60
2019-02-10T14:59:43.029Z,43.40
2019-02-10T15:03:50.596Z,36.30
2019-02-10T15:07:58.148Z,38.73
2019-02-10T15:12:05.703Z,40.43
2019-02-10T15:16:13.263Z,39.42
2019-02-10T15:20:20.833Z,39.63
2019-02-10T15:24:28.392Z,33.38
2019-02-10T15:28:35.961Z,31.25
2019-02-10T16:40:35.518Z,28.83
2019-02-10T16:42:18.998Z,28.17
2019-02-10T16:44:23.092Z,28.25
2019-02-10T16:44:56.573Z,31.37
2019-02-10T16:45:30.063Z,28.85
2019-02-10T16:55:47.439Z,52.23
2019-02-10T16:56:20.926Z,57.80
2019-02-10T16:56:54.427Z,37.90
2019-02-10T16:57:27.910Z,55.40
2019-02-10T16:58:01.396Z,51.75
2019-02-10T16:58:34.896Z,113.52
2019-02-10T16:59:08.387Z,161.28
2019-02-10T16:59:41.867Z,143.80
2019-02-10T17:00:16.266Z,83.72
2019-02-10T17:00:49.741Z,69.22
2019-02-10T17:01:23.231Z,100.18
2019-02-10T17:01:56.711Z,70.92
2019-02-10T17:02:30.186Z,37.28
2019-02-10T17:03:03.667Z,35.98
2019-02-10T17:03:37.151Z,13.95
2019-02-10T17:04:10.646Z,94.17
2019-02-10T17:04:44.131Z,134.45
2019-02-10T17:05:17.623Z,116.42
2019-02-10T17:05:51.106Z,181.05
2019-02-10T17:06:24.593Z,48.95
2019-02-10T17:06:58.077Z,92.67
2019-02-10T17:07:31.563Z,126.80
2019-02-10T17:08:05.046Z,71.70
2019-02-10T17:08:38.528Z,183.25
2019-02-10T17:09:12.094Z,114.08
2019-02-10T17:09:45.572Z,63.42
2019-02-10T17:10:22.368Z,67.78
2019-02-10T17:10:55.854Z,84.28
2019-02-10T17:11:29.337Z,98.85
2019-02-10T17:12:02.815Z,90.67
2019-02-10T17:12:36.311Z,90.07
2019-02-10T17:13:09.794Z,87.08
2019-02-10T17:13:43.292Z,87.10
2019-02-10T17:14:16.773Z,89.90
2019-02-10T17:14:50.263Z,101.47
2019-02-10T17:15:23.748Z,111.77
2019-02-10T17:16:04.784Z,126.12
2019-02-10T17:16:32.495Z,126.25
2019-02-10T17:17:05.979Z,123.67
2019-02-10T17:17:39.491Z,131.85
2019-02-10T17:18:12.985Z,120.85
2019-02-10T17:18:46.477Z,102.15
2019-02-10T17:19:19.980Z,93.58
2019-02-10T17:19:53.470Z,85.00
2019-02-10T17:20:26.945Z,79.65
2019-02-10T17:21:00.425Z,81.32
2019-02-10T17:21:33.923Z,73.95
2019-02-10T17:22:07.401Z,92.82
2019-02-10T17:22:41.195Z,129.65
2019-02-10T17:23:14.682Z,148.65
2019-02-10T17:23:48.163Z,179.18
2019-02-10T17:24:21.656Z,174.32
2019-02-10T17:24:55.139Z,162.03
2019-02-10T17:25:29.723Z,157.27
2019-02-10T17:26:03.216Z,150.60
2019-02-10T17:26:36.708Z,139.07
2019-02-10T17:27:10.236Z,115.37
2019-02-10T17:27:43.714Z,85.92
2019-02-10T17:28:17.196Z,104.43
2019-02-10T17:28:50.688Z,121.62
2019-02-10T17:29:24.178Z,151.75
2019-02-10T17:32:09.428Z,146.77
2019-02-10T17:34:37.922Z,77.82
2019-02-10T17:37:06.415Z,47.30
2019-02-10T17:39:34.916Z,65.20
2019-02-10T17:42:03.399Z,99.92
2019-02-10T17:44:31.892Z,74.62
2019-02-10T17:47:00.399Z,107.72
2019-02-10T17:49:28.894Z,93.62
2019-02-10T17:51:57.385Z,75.72
2019-02-10T17:54:25.872Z,55.90
2019-02-10T17:56:54.362Z,103.47
2019-02-10T17:59:22.846Z,55.73
2019-02-10T18:01:51.343Z,74.53
2019-02-10T18:04:19.857Z,345.93
2019-02-10T19:14:55.856Z,89.47
2019-02-10T19:17:25.923Z,75.83
2019-02-10T19:20:12.476Z,82.22
2019-02-10T19:22:57.782Z,145.92
2019-02-10T19:25:30.540Z,175.07
2019-02-10T19:28:06.347Z,108.05
2019-02-10T19:30:36.410Z,107.17
2019-02-10T19:33:06.466Z,103.05
2019-02-10T19:35:45.839Z,86.85
2019-02-10T19:38:30.963Z,149.38
2019-02-10T19:41:01.025Z,80.40
2019-02-10T19:43:43.087Z,89.35
2019-02-10T19:46:13.191Z,69.77
2019-02-10T19:48:55.477Z,68.75
2019-02-10T19:51:28.512Z,112.08
2019-02-10T19:54:04.652Z,85.35
2019-02-10T19:56:43.551Z,81.80
2019-02-10T19:59:16.055Z,71.67
2019-02-10T20:01:52.178Z,103.25
2019-02-10T20:04:34.143Z,81.10
2019-02-10T20:07:06.983Z,72.22
2019-02-10T20:09:53.600Z,74.15
2019-02-10T20:12:26.927Z,64.72
2019-02-10T20:14:59.964Z,82.02
2019-02-10T20:17:38.919Z,76.42
2019-02-10T20:20:10.985Z,67.08
2019-02-10T20:22:49.951Z,112.45
2019-02-10T20:25:22.490Z,91.60
2019-02-10T20:28:01.266Z,167.18
2019-02-10T20:30:40.682Z,122.58
2019-02-10T20:33:10.745Z,121.30
2019-02-10T20:35:49.338Z,177.53
2019-02-10T20:38:34.391Z,309.30
2019-02-10T20:41:10.313Z,185.28
2019-02-10T20:43:43.457Z,193.45
2019-02-10T20:46:13.525Z,235.08
2019-02-10T20:48:43.584Z,162.40
2019-02-10T20:51:19.749Z,121.02
2019-02-10T20:53:58.608Z,66.28
2019-02-10T20:56:31.400Z,59.88
2019-02-10T20:59:04.563Z,53.45
2019-02-10T21:01:34.709Z,59.63
2019-02-10T21:04:20.936Z,172.93
2019-02-10T21:07:03.145Z,119.17
2019-02-10T21:09:33.203Z,64.25
2019-02-10T21:12:20.130Z,58.90
2019-02-10T21:14:44.138Z,59.23
2019-02-10T21:17:32.471Z,94.92
2019-02-10T21:20:20.939Z,86.65
2019-02-10T21:22:50.994Z,53.98
2019-02-10T21:25:36.327Z,65.05
2019-02-10T21:28:06.383Z,94.95
2019-02-10T21:30:36.458Z,117.62
2019-02-10T21:33:23.145Z,93.85
2019-02-10T21:35:59.227Z,117.25
2019-02-10T21:38:41.290Z,90.67
2019-02-10T21:41:14.567Z,76.42
2019-02-10T21:44:02.742Z,159.97
2019-02-10T21:46:35.753Z,66.07
2019-02-10T21:49:05.137Z,53.33
2019-02-10T21:51:33.626Z,83.47
2019-02-10T21:54:02.228Z,214.80
2019-02-10T21:56:30.723Z,89.42
2019-02-10T21:58:59.206Z,75.15
2019-02-10T22:01:27.702Z,65.22
2019-02-10T22:03:56.181Z,71.90
2019-02-10T22:06:24.702Z,84.15
2019-02-10T22:08:53.196Z,84.47
2019-02-10T22:11:21.693Z,91.45
2019-02-10T22:13:50.179Z,70.55
2019-02-10T22:16:18.709Z,62.67
2019-02-10T22:18:47.194Z,62.08
2019-02-10T22:21:15.720Z,56.60
2019-02-10T22:23:44.215Z,44.45
2019-02-10T22:26:12.697Z,40.38
2019-02-10T22:28:41.194Z,64.62
2019-02-10T22:31:09.721Z,66.05
2019-02-10T22:33:38.265Z,81.55
2019-02-10T22:36:06.753Z,79.37
2019-02-10T22:38:35.289Z,69.47
2019-02-10T22:41:03.744Z,80.25
2019-02-10T22:43:32.238Z,81.25
2019-02-10T22:46:00.727Z,71.05
2019-02-10T22:48:29.218Z,59.03
2019-02-10T22:50:57.707Z,58.48
2019-02-10T22:53:26.202Z,47.55
2019-02-10T22:55:54.701Z,50.33
2019-02-10T22:58:23.190Z,58.30
2019-02-10T23:00:57.752Z,50.75
2019-02-10T23:03:26.238Z,41.75
2019-02-10T23:05:54.745Z,42.15
2019-02-10T23:08:23.234Z,45.08
2019-02-10T23:10:52.063Z,42.90
2019-02-10T23:13:20.631Z,42.20
2019-02-10T23:15:49.158Z,43.80
2019-02-10T23:18:17.636Z,40.73
2019-02-10T23:20:46.118Z,36.80
2019-02-10T23:23:14.611Z,38.35
2019-02-10T23:25:43.142Z,41.20
2019-02-10T23:28:11.620Z,33.50
2019-02-10T23:30:40.157Z,33.58
2019-02-10T23:33:08.647Z,33.40
2019-02-10T23:35:37.133Z,33.85
2019-02-10T23:38:05.643Z,36.93
2019-02-10T23:40:34.127Z,37.80
2019-02-10T23:43:02.667Z,40.83
2019-02-10T23:45:31.154Z,42.48
2019-02-10T23:47:59.640Z,42.80
2019-02-10T23:50:28.135Z,58.10
2019-02-10T23:52:56.664Z,51.10
2019-02-10T23:55:25.159Z,43.00
2019-02-10T23:57:53.702Z,34.38
